createdAt,value
2023-02-11T00:03:45.966Z,4.20
2023-02-11T00:08:49.070Z,4.45
2023-02-11T00:13:52.805Z,5.10
2023-02-11T00:18:56.121Z,5.55
2023-02-11T00:24:02.154Z,5.07
2023-02-11T00:29:06.116Z,6.00
2023-02-11T00:34:09.149Z,5.55
2023-02-11T00:39:12.181Z,4.90
2023-02-11T00:44:18.354Z,4.85
2023-02-11T00:49:24.044Z,5.57
2023-02-11T00:54:29.887Z,5.68
2023-02-11T00:59:33.069Z,5.28
2023-02-11T01:04:37.660Z,4.75
2023-02-11T01:09:40.760Z,4.95
2023-02-11T01:14:44.633Z,3.90
2023-02-11T01:19:50.621Z,5.57
2023-02-11T01:24:53.675Z,5.85
2023-02-11T01:29:56.866Z,5.53
2023-02-11T01:35:00.161Z,7.13
2023-02-11T01:40:07.982Z,5.22
2023-02-11T01:45:41.741Z,5.47
2023-02-11T01:50:47.781Z,5.63
2023-02-11T01:56:11.634Z,5.10
2023-02-11T02:01:20.487Z,5.55
2023-02-11T02:06:31.390Z,5.43
2023-02-11T02:11:34.387Z,5.38
2023-02-11T02:16:38.954Z,5.20
2023-02-11T02:22:14.583Z,5.93
2023-02-11T02:27:32.937Z,5.75
2023-02-11T02:32:42.300Z,5.32
2023-02-11T02:38:06.206Z,6.45
2023-02-11T02:43:11.473Z,5.38
2023-02-11T02:48:26.871Z,4.18
2023-02-11T02:54:25.117Z,4.90
2023-02-11T03:00:00.301Z,4.88
2023-02-11T03:05:18.816Z,4.75
2023-02-11T03:10:24.411Z,4.47
2023-02-11T03:15:31.273Z,4.53
2023-02-11T03:20:37.730Z,3.63
2023-02-11T03:25:53.529Z,3.33
2023-02-11T03:31:15.457Z,4.50
2023-02-11T03:36:34.730Z,4.07
2023-02-11T03:41:39.537Z,4.32
2023-02-11T03:46:48.655Z,3.60
2023-02-11T03:51:53.981Z,4.03
2023-02-11T03:56:59.822Z,4.25
2023-02-11T04:02:02.910Z,2.30
2023-02-11T04:07:05.942Z,3.83
2023-02-11T04:12:09.157Z,4.30
2023-02-11T04:17:14.570Z,4.22
2023-02-11T04:22:17.552Z,4.18
2023-02-11T04:27:20.591Z,3.70
2023-02-11T04:32:24.041Z,4.63
2023-02-11T04:37:26.983Z,3.70
2023-02-11T04:42:30.057Z,4.10
2023-02-11T04:47:33.032Z,3.25
2023-02-11T04:52:36.091Z,3.53
2023-02-11T04:57:39.115Z,3.20
2023-02-11T05:02:42.200Z,3.58
2023-02-11T05:07:45.186Z,3.45
2023-02-11T05:12:49.628Z,3.58
2023-02-11T05:17:53.748Z,2.13
2023-02-11T05:22:56.797Z,3.10
2023-02-11T05:27:59.874Z,3.72
2023-02-11T05:33:02.935Z,2.85
2023-02-11T05:38:06.034Z,4.10
2023-02-11T05:43:09.943Z,4.15
2023-02-11T05:48:13.074Z,3.67
2023-02-11T05:53:18.778Z,4.38
2023-02-11T05:58:22.011Z,4.72
2023-02-11T06:03:25.123Z,3.72
2023-02-11T06:08:28.192Z,4.10
2023-02-11T06:13:31.234Z,2.63
2023-02-11T06:18:34.366Z,4.28
2023-02-11T06:23:38.171Z,2.85
2023-02-11T06:28:42.114Z,3.17
2023-02-11T06:33:45.319Z,3.53
2023-02-11T06:38:49.441Z,3.45
2023-02-11T06:43:53.266Z,4.70
2023-02-11T06:48:57.261Z,4.07
2023-02-11T06:54:00.304Z,3.42
2023-02-11T06:59:03.794Z,4.03
2023-02-11T07:04:08.424Z,3.50
2023-02-11T07:09:11.474Z,3.50
2023-02-11T07:14:14.640Z,3.45
2023-02-11T07:19:17.962Z,3.10
2023-02-11T07:24:21.192Z,3.53
2023-02-11T07:29:24.248Z,3.30
2023-02-11T07:34:27.353Z,2.13
2023-02-11T07:39:30.423Z,2.70
2023-02-11T07:44:34.727Z,3.08
2023-02-11T07:49:37.774Z,3.88
2023-02-11T07:54:41.047Z,4.22
2023-02-11T07:59:44.265Z,4.93
2023-02-11T08:04:47.783Z,6.07
2023-02-11T08:09:50.823Z,4.50
2023-02-11T08:14:54.092Z,4.40
2023-02-11T08:19:57.164Z,4.90
2023-02-11T08:25:00.410Z,2.97
2023-02-11T08:30:04.007Z,4.55
2023-02-11T08:35:08.480Z,4.15
2023-02-11T08:40:11.726Z,4.45
2023-02-11T08:45:15.779Z,4.45
2023-02-11T08:50:18.982Z,4.50
2023-02-11T08:55:22.061Z,4.15
2023-02-11T09:00:27.933Z,3.13
2023-02-11T09:05:30.936Z,3.45
2023-02-11T09:10:34.930Z,3.92
2023-02-11T09:15:38.482Z,3.03
2023-02-11T09:20:43.843Z,3.45
2023-02-11T09:25:46.972Z,4.10
2023-02-11T09:30:50.482Z,3.05
2023-02-11T09:35:53.731Z,3.72
2023-02-11T09:40:59.861Z,2.63
2023-02-11T09:46:03.475Z,2.55
2023-02-11T09:51:13.346Z,3.30
2023-02-11T09:56:16.570Z,3.60
2023-02-11T10:01:55.257Z,3.72
2023-02-11T10:07:03.901Z,3.35
2023-02-11T10:12:19.596Z,3.28
2023-02-11T10:17:44.403Z,3.30
2023-02-11T10:22:56.114Z,4.20
2023-02-11T10:28:01.762Z,3.50
2023-02-11T10:33:21.673Z,3.42
2023-02-11T10:38:25.284Z,3.72
2023-02-11T10:43:31.162Z,2.50
2023-02-11T10:48:53.013Z,4.00
2023-02-11T10:54:04.954Z,3.60
2023-02-11T10:59:14.988Z,3.03
2023-02-11T11:04:30.194Z,3.70
2023-02-11T11:10:03.935Z,3.35
2023-02-11T11:15:22.373Z,3.42
2023-02-11T11:20:35.693Z,3.70
2023-02-11T11:25:41.920Z,2.67
2023-02-11T11:30:45.013Z,3.70
2023-02-11T11:36:13.902Z,3.38
2023-02-11T11:41:27.425Z,3.53
2023-02-11T11:46:40.843Z,3.33
2023-02-11T11:57:00.274Z,2.60
2023-02-11T12:02:42.995Z,3.22
2023-02-11T12:08:08.770Z,3.00
2023-02-11T12:13:33.253Z,2.83
2023-02-11T12:19:10.516Z,3.40
2023-02-11T12:24:27.830Z,3.30
2023-02-11T12:30:08.963Z,2.85
2023-02-11T12:35:33.645Z,2.80
2023-02-11T12:40:56.100Z,3.47
2023-02-11T12:46:30.782Z,4.20
2023-02-11T12:51:45.771Z,3.20
2023-02-11T12:57:02.635Z,3.28
2023-02-11T13:02:22.217Z,3.55
2023-02-11T13:13:10.452Z,3.75
2023-02-11T13:18:30.702Z,3.58
2023-02-11T13:23:42.149Z,3.92
2023-02-11T13:29:20.785Z,3.92
2023-02-11T13:34:44.343Z,3.40
2023-02-11T13:40:01.946Z,4.05
2023-02-11T13:45:19.145Z,4.47
2023-02-11T13:50:25.377Z,4.95
2023-02-11T13:55:29.681Z,4.18
2023-02-11T14:00:35.599Z,4.13
2023-02-11T14:05:57.121Z,3.70
2023-02-11T14:11:24.161Z,5.22
2023-02-11T14:16:37.610Z,5.85
2023-02-11T14:21:44.702Z,5.05
2023-02-11T14:26:52.020Z,4.00
2023-02-11T14:32:38.359Z,4.82
2023-02-11T14:37:50.614Z,4.75
2023-02-11T14:42:55.783Z,4.68
2023-02-11T14:48:08.582Z,2.92
2023-02-11T14:53:17.802Z,4.60
2023-02-11T14:58:26.821Z,5.90
2023-02-11T15:03:41.196Z,4.85
2023-02-11T15:08:48.762Z,5.05
2023-02-11T15:19:03.207Z,5.47
2023-02-11T15:24:33.107Z,2.85
2023-02-11T15:29:43.130Z,4.63
2023-02-11T15:34:49.387Z,3.95
2023-02-11T15:39:54.110Z,5.07
2023-02-11T15:45:16.979Z,5.55
2023-02-11T15:50:29.476Z,4.60
2023-02-11T15:55:33.255Z,5.65
2023-02-11T16:00:45.938Z,5.25
2023-02-11T16:05:49.197Z,5.82
2023-02-11T16:11:03.501Z,5.18
2023-02-11T16:16:26.237Z,5.28
2023-02-11T16:21:35.585Z,5.50
2023-02-11T16:26:43.449Z,5.07
2023-02-11T16:31:48.700Z,5.85
2023-02-11T16:36:53.132Z,6.43
2023-02-11T16:41:56.524Z,5.85
2023-02-11T16:47:01.494Z,7.03
2023-02-11T16:52:09.577Z,7.00
2023-02-11T16:57:16.707Z,8.20
2023-02-11T17:02:31.488Z,6.95
2023-02-11T17:07:34.516Z,8.73
2023-02-11T17:12:37.531Z,8.15
2023-02-11T17:17:40.558Z,8.00
2023-02-11T17:22:43.724Z,6.10
2023-02-11T17:27:50.684Z,8.00
2023-02-11T17:32:55.520Z,7.13
2023-02-11T17:37:59.551Z,8.00
2023-02-11T17:43:02.804Z,7.15
2023-02-11T17:48:06.022Z,7.50
2023-02-11T17:53:09.194Z,8.32
2023-02-11T17:58:12.268Z,7.80
2023-02-11T18:03:15.339Z,6.57
2023-02-11T18:08:18.808Z,7.95
2023-02-11T18:13:22.018Z,7.55
2023-02-11T18:18:25.172Z,7.38
2023-02-11T18:23:29.012Z,10.60
2023-02-11T18:28:32.041Z,9.02
2023-02-11T18:33:39.491Z,8.85
2023-02-11T18:38:44.714Z,9.20
2023-02-11T18:43:47.790Z,9.95
2023-02-11T18:48:55.568Z,9.43
2023-02-11T18:54:01.445Z,9.68
2023-02-11T18:59:04.987Z,9.95
2023-02-11T19:04:08.364Z,10.40
2023-02-11T19:09:14.946Z,8.68
2023-02-11T19:14:38.980Z,9.13
2023-02-11T19:19:42.114Z,8.32
2023-02-11T19:24:46.574Z,5.00
2023-02-11T19:29:49.717Z,9.50
2023-02-11T19:34:55.750Z,9.77
2023-02-11T19:39:58.793Z,10.07
2023-02-11T19:45:01.791Z,10.68
2023-02-11T19:50:06.558Z,8.52
2023-02-11T19:55:09.663Z,10.05
2023-02-11T20:00:13.411Z,9.13
2023-02-11T20:05:18.286Z,9.23
2023-02-11T20:10:21.287Z,10.10
2023-02-11T20:15:24.300Z,9.43
2023-02-11T20:20:27.363Z,10.30
2023-02-11T20:25:30.443Z,9.30
2023-02-11T20:30:33.614Z,8.70
2023-02-11T20:35:36.996Z,8.65
2023-02-11T20:40:40.075Z,8.52
2023-02-11T20:45:43.109Z,8.82
2023-02-11T20:50:48.317Z,9.32
2023-02-11T20:55:51.698Z,9.77
2023-02-11T21:00:54.930Z,8.82
2023-02-11T21:06:01.056Z,9.63
2023-02-11T21:11:04.452Z,9.55
2023-02-11T21:16:09.930Z,10.02
2023-02-11T21:21:13.012Z,8.65
2023-02-11T21:26:17.527Z,10.07
2023-02-11T21:31:27.274Z,8.82
2023-02-11T21:36:31.371Z,6.72
2023-02-11T21:41:34.412Z,10.25
2023-02-11T21:46:37.638Z,10.20
2023-02-11T21:51:40.758Z,9.90
2023-02-11T21:56:43.752Z,9.80
2023-02-11T22:01:49.491Z,9.82
2023-02-11T22:06:53.239Z,10.63
2023-02-11T22:11:56.602Z,9.90
2023-02-11T22:17:02.439Z,10.30
2023-02-11T22:22:08.698Z,8.95
2023-02-11T22:27:12.656Z,9.15
2023-02-11T22:32:18.095Z,8.13
2023-02-11T22:37:21.271Z,9.60
2023-02-11T22:42:24.264Z,7.32
2023-02-11T22:47:28.003Z,8.50
2023-02-11T22:52:31.084Z,8.48
2023-02-11T22:57:34.110Z,9.60
2023-02-11T23:02:37.231Z,10.75
2023-02-11T23:07:40.240Z,11.00
2023-02-11T23:12:43.311Z,8.88
2023-02-11T23:17:46.369Z,7.72
2023-02-11T23:22:49.712Z,8.73
2023-02-11T23:27:52.772Z,8.40
2023-02-11T23:32:55.758Z,8.77
2023-02-11T23:37:58.872Z,8.98
2023-02-11T23:43:04.480Z,9.50
2023-02-11T23:48:07.555Z,7.03
2023-02-11T23:53:11.578Z,9.13
2023-02-11T23:58:15.288Z,7.85
